Time;durP1;ratioP1;P1;durP2;ratioP2;P2;SDS_P1;SDS_P2;PMS_P1;PMS_P2;Temp;Humidity;BMP_temperature;BMP_pressure;BME280_temperature;BME280_humidity;BME280_pressure;Samples;Min_cycle;Max_cycle;Signal;HPM_P1;HPM_P2
2022/02/19 00:02:16;;;;;;;;;;;;;;;;;;4316808;33;19943;-82
2022/02/19 00:05:38;;;;;;;;;;;;;;;;;;;;;
2022/02/19 00:07:38;;;;;;;;;;;;;;;;;;;;;
2022/02/19 00:10:04;;;;;;;;;;;;;;;;;;4318644;33;19935;-80
2022/02/19 00:12:32;;;;;;;;;;;;;;;;;;4316609;33;19940;-84
2022/02/19 00:15:09;;;;;;;;;;;;;;;;;;4316515;33;19942;-80
2022/02/19 00:17:34;;;;;;;;;;;;;;;;;;4317718;33;19939;-81
2022/02/19 00:20:07;;;;;;;;;;;;;;;;;;4318034;33;19975;-83
2022/02/19 00:22:39;;;;;;;;;;;;;;;;;;4317951;33;19943;-81
2022/02/19 00:25:13;;;;;;;;;;;;;;;;;;4287938;33;19948;-82
2022/02/19 00:27:45;;;;;;;;;;;;;;;;;;4289295;33;20327;-82
2022/02/19 00:30:11;;;;;;;;;;;;;;;;;;4287952;33;19968;-82
2022/02/19 00:32:39;;;;;;;;;;;;;;;;;;4287734;33;19944;-82
2022/02/19 00:35:04;;;;;;;;;;;;;;;;;;4287178;33;19936;-83
2022/02/19 00:37:32;;;;;;;;;;;;;;;;;;4288818;33;20306;-83
2022/02/19 00:39:59;;;;;;;;;;;;;;;;;;4288900;33;19948;-84
2022/02/19 00:42:27;;;;;;;;;;;;;;;;;;4289594;33;19932;-83
2022/02/19 00:47:38;;;;;;;;;;;;;;;;;;4300576;33;19946;-84
2022/02/19 00:50:03;;;;;;;;;;;;;;;;;;4314590;33;19935;-84
2022/02/19 00:52:31;;;;;;;;;;;;;;;;;;4317113;33;19939;-84
2022/02/19 00:54:56;;;;;;;;;;;;;;;;;;4317747;33;19940;-85
2022/02/19 00:57:22;;;;;;;;;;;;;;;;;;4317654;33;19989;-84
2022/02/19 00:59:47;;;;;;;;;;;;;;;;;;4317353;33;19998;-85
2022/02/19 01:02:12;;;;;;;;;;;;;;;;;;4316215;33;19975;-86
2022/02/19 01:04:46;;;;;;;;;;;;;;;;;;4316233;33;19939;-84
2022/02/19 01:07:23;;;;;;;;;;;;;;;;;;4317805;33;19975;-82
2022/02/19 01:09:48;;;;;;;;;;;;;;;;;;4300175;33;19936;-86
2022/02/19 01:12:13;;;;;;;;;;;;;;;;;;4288566;33;19955;-83
2022/02/19 01:14:41;;;;;;;;;;;;;;;;;;4288685;33;19936;-84
2022/02/19 01:17:06;;;;;;;;;;;;;;;;;;4299770;33;20341;-83
2022/02/19 01:19:31;;;;;;;;;;;;;;;;;;4287887;33;20297;-83
2022/02/19 01:22:00;;;;;;;;;;;;;;;;;;4298534;33;19940;-84
2022/02/19 01:24:25;;;;;;;;;;;;;;;;;;4313497;33;19966;-85
2022/02/19 01:26:51;;;;;;;;;;;;;;;;;;4315907;33;19943;-84
2022/02/19 01:29:16;;;;;;;;;;;;;;;;;;4315678;33;19981;-86
2022/02/19 01:31:41;;;;;;;;;;;;;;;;;;4317111;33;20018;-81
2022/02/19 01:34:06;;;;;;;;;;;;;;;;;;4315073;33;20378;-83
2022/02/19 01:36:37;;;;;;;;;;;;;;;;;;4303585;33;20019;-84
2022/02/19 01:39:02;;;;;;;;;;;;;;;;;;4298609;33;19987;-83
2022/02/19 01:41:27;;;;;;;;;;;;;;;;;;4298847;33;20044;-81
2022/02/19 01:43:52;;;;;;;;;;;;;;;;;;4287820;33;19951;-84
2022/02/19 01:46:17;;;;;;;;;;;;;;;;;;4310144;33;19944;-82
2022/02/19 01:48:45;;;;;;;;;;;;;;;;;;4313154;33;19958;-82
2022/02/19 01:51:21;;;;;;;;;;;;;;;;;;4312805;33;19931;-82
2022/02/19 01:53:49;;;;;;;;;;;;;;;;;;4312872;33;19932;-85
2022/02/19 01:56:14;;;;;;;;;;;;;;;;;;4313142;33;19959;-83
2022/02/19 01:58:39;;;;;;;;;;;;;;;;;;4302657;33;19991;-83
2022/02/19 02:01:10;;;;;;;;;;;;;;;;;;4312900;33;19940;-82
2022/02/19 02:03:38;;;;;;;;;;;;;;;;;;4313254;33;19995;-82
2022/02/19 02:06:10;;;;;;;;;;;;;;;;;;4309060;33;19993;-82
2022/02/19 02:08:39;;;;;;;;;;;;;;;;;;4316145;33;20309;-83
2022/02/19 02:11:04;;;;;;;;;;;;;;;;;;4317449;33;19978;-83
2022/02/19 02:13:29;;;;;;;;;;;;;;;;;;4316932;33;19948;-84
2022/02/19 02:15:54;;;;;;;;;;;;;;;;;;4315308;33;19935;-85
2022/02/19 02:18:20;;;;;;;;;;;;;;;;;;4315590;33;20273;-83
2022/02/19 02:20:45;;;;;;;;;;;;;;;;;;4314987;33;19950;-84
2022/02/19 02:23:10;;;;;;;;;;;;;;;;;;4317609;33;20277;-83
2022/02/19 02:25:35;;;;;;;;;;;;;;;;;;4317543;33;20287;-87
2022/02/19 02:28:00;;;;;;;;;;;;;;;;;;4319322;33;20310;-81
2022/02/19 02:30:25;;;;;;;;;;;;;;;;;;4319116;33;19935;-82
2022/02/19 02:32:51;;;;;;;;;;;;;;;;;;4315077;33;20015;-83
2022/02/19 02:35:17;;;;;;;;;;;;;;;;;;4317642;33;19948;-80
2022/02/19 02:37:42;;;;;;;;;;;;;;;;;;4319642;33;19965;-80
2022/02/19 02:40:10;;;;;;;;;;;;;;;;;;4317978;33;19947;-84
2022/02/19 02:42:35;;;;;;;;;;;;;;;;;;4318864;33;20047;-81
2022/02/19 02:45:01;;;;;;;;;;;;;;;;;;4317744;33;20364;-82
2022/02/19 02:47:26;;;;;;;;;;;;;;;;;;4317430;33;19994;-82
2022/02/19 02:49:51;;;;;;;;;;;;;;;;;;4317608;33;20009;-82
2022/02/19 02:52:16;;;;;;;;;;;;;;;;;;4319940;33;19936;-81
2022/02/19 02:54:44;;;;;;;;;;;;;;;;;;4319203;33;20070;-83
2022/02/19 02:57:09;;;;;;;;;;;;;;;;;;4318335;33;20322;-85
2022/02/19 02:59:34;;;;;;;;;;;;;;;;;;4317351;33;19939;-83
2022/02/19 03:02:05;;;;;;;;;;;;;;;;;;4318420;33;19966;-83
2022/02/19 03:04:30;;;;;;;;;;;;;;;;;;4318866;33;19936;-81
2022/02/19 03:06:55;;;;;;;;;;;;;;;;;;4318035;33;20350;-84
2022/02/19 03:09:20;;;;;;;;;;;;;;;;;;4318042;33;20364;-81
2022/02/19 03:11:45;;;;;;;;;;;;;;;;;;4317236;33;19939;-80
2022/02/19 03:14:10;;;;;;;;;;;;;;;;;;4317344;33;19987;-84
2022/02/19 03:16:38;;;;;;;;;;;;;;;;;;4313211;33;19935;-84
2022/02/19 03:19:03;;;;;;;;;;;;;;;;;;4318748;33;20045;-85
2022/02/19 03:21:28;;;;;;;;;;;;;;;;;;4317096;33;19944;-85
2022/02/19 03:23:54;;;;;;;;;;;;;;;;;;4316734;33;20334;-81
2022/02/19 03:26:19;;;;;;;;;;;;;;;;;;4318609;33;19961;-82
2022/02/19 03:28:44;;;;;;;;;;;;;;;;;;4317543;33;19944;-82
2022/02/19 03:31:12;;;;;;;;;;;;;;;;;;4317095;33;20323;-83
2022/02/19 03:33:40;;;;;;;;;;;;;;;;;;4306575;33;19947;-82
2022/02/19 03:36:05;;;;;;;;;;;;;;;;;;4316696;33;19935;-84
2022/02/19 03:38:30;;;;;;;;;;;;;;;;;;4317961;33;19993;-83
2022/02/19 03:40:55;;;;;;;;;;;;;;;;;;4317021;33;20326;-82
2022/02/19 03:43:26;;;;;;;;;;;;;;;;;;4318326;33;19935;-81
2022/02/19 03:46:12;;;;;;;;;;;;;;;;;;4317714;33;19993;-84
2022/02/19 03:48:48;;;;;;;;;;;;;;;;;;4313804;33;19947;-83
2022/02/19 03:51:16;;;;;;;;;;;;;;;;;;4316676;33;20321;-83
2022/02/19 03:53:42;;;;;;;;;;;;;;;;;;4316749;33;19974;-83
2022/02/19 03:56:07;;;;;;;;;;;;;;;;;;4318270;33;20264;-83
2022/02/19 03:58:34;;;;;;;;;;;;;;;;;;4318485;33;19979;-82
2022/02/19 04:00:59;;;;;;;;;;;;;;;;;;4316887;33;19959;-83
2022/02/19 04:03:24;;;;;;;;;;;;;;;;;;4317927;33;20355;-82
2022/02/19 04:05:49;;;;;;;;;;;;;;;;;;4316630;33;20007;-85
2022/02/19 04:08:14;;;;;;;;;;;;;;;;;;4318866;33;19951;-84
2022/02/19 04:10:40;;;;;;;;;;;;;;;;;;4316731;33;19958;-83
2022/02/19 04:13:05;;;;;;;;;;;;;;;;;;4318172;33;19950;-83
2022/02/19 04:15:31;;;;;;;;;;;;;;;;;;4318139;33;19946;-83
2022/02/19 04:17:56;;;;;;;;;;;;;;;;;;4314866;33;19935;-79
2022/02/19 04:20:21;;;;;;;;;;;;;;;;;;4318033;33;19940;-83
2022/02/19 04:22:46;;;;;;;;;;;;;;;;;;4316883;33;19944;-84
2022/02/19 04:25:14;;;;;;;;;;;;;;;;;;4316019;33;19931;-83
2022/02/19 04:27:39;;;;;;;;;;;;;;;;;;4317664;33;20317;-84
2022/02/19 04:30:05;;;;;;;;;;;;;;;;;;4317751;33;20389;-83
2022/02/19 04:32:30;;;;;;;;;;;;;;;;;;4316385;33;19974;-83
2022/02/19 04:34:55;;;;;;;;;;;;;;;;;;4316104;33;19974;-81
2022/02/19 04:37:20;;;;;;;;;;;;;;;;;;4317357;33;19939;-79
2022/02/19 04:39:46;;;;;;;;;;;;;;;;;;4316036;33;19935;-82
2022/02/19 04:42:11;;;;;;;;;;;;;;;;;;4317245;33;19979;-82
2022/02/19 04:44:37;;;;;;;;;;;;;;;;;;4316778;33;19943;-79
2022/02/19 04:47:02;;;;;;;;;;;;;;;;;;4316945;33;19955;-80
2022/02/19 04:49:28;;;;;;;;;;;;;;;;;;4317010;33;20317;-82
2022/02/19 04:51:55;;;;;;;;;;;;;;;;;;4317455;33;19970;-80
2022/02/19 04:54:20;;;;;;;;;;;;;;;;;;4315608;33;19939;-82
2022/02/19 04:56:45;;;;;;;;;;;;;;;;;;4316764;33;20352;-81
2022/02/19 04:59:16;;;;;;;;;;;;;;;;;;4316467;33;19954;-81
2022/02/19 05:01:41;;;;;;;;;;;;;;;;;;4314847;33;19970;-81
2022/02/19 05:04:07;;;;;;;;;;;;;;;;;;4302715;33;19936;-84
2022/02/19 05:06:35;;;;;;;;;;;;;;;;;;4304028;33;19952;-84
2022/02/19 05:09:00;;;;;;;;;;;;;;;;;;4302969;33;19948;-82
2022/02/19 05:11:25;;;;;;;;;;;;;;;;;;4302322;33;19978;-79
2022/02/19 05:13:56;;;;;;;;;;;;;;;;;;4302349;33;19966;-82
2022/02/19 05:16:21;;;;;;;;;;;;;;;;;;4302444;33;19963;-79
2022/02/19 05:18:50;;;;;;;;;;;;;;;;;;4316422;33;20356;-82
2022/02/19 05:21:21;;;;;;;;;;;;;;;;;;4316908;33;19951;-83
2022/02/19 05:23:46;;;;;;;;;;;;;;;;;;4315599;33;19940;-83
2022/02/19 05:26:14;;;;;;;;;;;;;;;;;;4315715;33;19965;-84
2022/02/19 05:28:41;;;;;;;;;;;;;;;;;;4315766;33;19958;-84
2022/02/19 05:31:11;;;;;;;;;;;;;;;;;;4315913;33;19931;-83
2022/02/19 05:33:37;;;;;;;;;;;;;;;;;;4315881;33;19932;-81
2022/02/19 05:36:02;;;;;;;;;;;;;;;;;;4315477;33;20272;-83
2022/02/19 05:38:27;;;;;;;;;;;;;;;;;;4315300;33;19939;-82
2022/02/19 05:40:56;;;;;;;;;;;;;;;;;;4317117;33;19940;-84
2022/02/19 05:43:24;;;;;;;;;;;;;;;;;;4315535;33;19940;-83
2022/02/19 05:45:49;;;;;;;;;;;;;;;;;;4313656;33;19946;-82
2022/02/19 05:48:14;;;;;;;;;;;;;;;;;;4301617;33;19940;-83
2022/02/19 05:50:39;;;;;;;;;;;;;;;;;;4302270;33;19944;-81
2022/02/19 05:53:05;;;;;;;;;;;;;;;;;;4300679;33;19986;-79
2022/02/19 05:55:30;;;;;;;;;;;;;;;;;;4300860;33;19936;-79
2022/02/19 05:57:58;;;;;;;;;;;;;;;;;;4304126;33;19984;-83
2022/02/19 06:00:25;;;;;;;;;;;;;;;;;;4315175;33;19939;-83
2022/02/19 06:02:50;;;;;;;;;;;;;;;;;;4315291;33;19931;-85
2022/02/19 06:05:18;;;;;;;;;;;;;;;;;;4315116;33;19939;-81
2022/02/19 06:07:43;;;;;;;;;;;;;;;;;;4315988;33;20322;-82
2022/02/19 06:10:08;;;;;;;;;;;;;;;;;;4316457;33;20321;-81
2022/02/19 06:12:33;;;;;;;;;;;;;;;;;;4315286;33;19966;-83
2022/02/19 06:14:59;;;;;;;;;;;;;;;;;;4300591;33;20263;-80
2022/02/19 06:17:24;;;;;;;;;;;;;;;;;;4301702;33;20326;-79
2022/02/19 06:19:49;;;;;;;;;;;;;;;;;;4302122;33;19991;-77
2022/02/19 06:22:14;;;;;;;;;;;;;;;;;;4300372;33;19978;-83
2022/02/19 06:24:51;;;;;;;;;;;;;;;;;;4300660;33;19954;-82
2022/02/19 06:27:16;;;;;;;;;;;;;;;;;;4300735;33;20306;-83
2022/02/19 06:29:41;;;;;;;;;;;;;;;;;;4300315;33;20002;-83
2022/02/19 06:32:09;;;;;;;;;;;;;;;;;;4302247;33;19940;-83
2022/02/19 06:34:34;;;;;;;;;;;;;;;;;;4300509;33;19971;-82
2022/02/19 06:36:59;;;;;;;;;;;;;;;;;;4301923;33;19940;-83
2022/02/19 06:39:24;;;;;;;;;;;;;;;;;;4300278;33;20291;-83
2022/02/19 06:42:08;;;;;;;;;;;;;;;;;;;;;
2022/02/19 06:44:52;;;;;;;;;;;;;;;;;;;;;
2022/02/19 06:47:17;;;;;;;;;;;;;;;;;;4316582;33;19943;-82
2022/02/19 06:49:43;;;;;;;;;;;;;;;;;;4315284;33;19947;-82
2022/02/19 06:52:08;;;;;;;;;;;;;;;;;;4315835;33;19978;-84
2022/02/19 06:54:33;;;;;;;;;;;;;;;;;;4315875;33;20325;-77
2022/02/19 06:57:01;;;;;;;;;;;;;;;;;;4316742;33;19952;-79
2022/02/19 06:59:26;;;;;;;;;;;;;;;;;;4308347;33;19932;-81
2022/02/19 07:01:51;;;;;;;;;;;;;;;;;;4317255;33;19935;-82
2022/02/19 07:04:16;;;;;;;;;;;;;;;;;;4313981;33;19952;-82
2022/02/19 07:06:41;;;;;;;;;;;;;;;;;;4312256;33;19954;-83
2022/02/19 07:09:06;;;;;;;;;;;;;;;;;;4306051;33;20267;-77
2022/02/19 07:11:35;;;;;;;;;;;;;;;;;;4305588;33;20402;-82
2022/02/19 07:14:00;;;;;;;;;;;;;;;;;;4305524;33;19950;-81
2022/02/19 07:16:25;;;;;;;;;;;;;;;;;;4318652;33;19991;-81
2022/02/19 07:18:53;;;;;;;;;;;;;;;;;;4318730;33;19947;-81
2022/02/19 07:21:18;;;;;;;;;;;;;;;;;;4319020;33;20325;-80
2022/02/19 07:23:43;;;;;;;;;;;;;;;;;;4315948;33;19962;-81
2022/02/19 07:26:08;;;;;;;;;;;;;;;;;;4305559;33;19974;-80
2022/02/19 07:28:34;;;;;;;;;;;;;;;;;;4317875;33;19948;-79
2022/02/19 07:31:08;;;;;;;;;;;;;;;;;;4318340;33;20229;-79
2022/02/19 07:33:33;;;;;;;;;;;;;;;;;;4318497;33;19954;-78
2022/02/19 07:35:58;;;;;;;;;;;;;;;;;;4319073;33;19940;-82
2022/02/19 07:38:23;;;;;;;;;;;;;;;;;;4317189;33;19936;-83
2022/02/19 07:40:49;;;;;;;;;;;;;;;;;;4317011;33;19950;-83
2022/02/19 07:43:16;;;;;;;;;;;;;;;;;;4317237;33;19974;-83
2022/02/19 07:45:41;;;;;;;;;;;;;;;;;;4316887;33;19936;-84
2022/02/19 07:48:13;;;;;;;;;;;;;;;;;;4318255;33;19982;-83
2022/02/19 07:58:51;;;;;;;;;;;;;;;;;;4318582;33;20301;-81
2022/02/19 08:01:16;;;;;;;;;;;;;;;;;;4316746;33;19940;-82
2022/02/19 08:03:41;;;;;;;;;;;;;;;;;;4316669;33;19971;-80
2022/02/19 08:06:06;;;;;;;;;;;;;;;;;;4317950;33;20002;-78
2022/02/19 08:08:33;;;;;;;;;;;;;;;;;;4316828;33;19967;-83
2022/02/19 08:10:58;;;;;;;;;;;;;;;;;;4317576;33;19943;-82
2022/02/19 08:13:23;;;;;;;;;;;;;;;;;;4316472;33;19950;-82
2022/02/19 08:15:51;;;;;;;;;;;;;;;;;;4316342;33;20282;-83
2022/02/19 08:18:17;;;;;;;;;;;;;;;;;;4317425;33;19953;-82
2022/02/19 08:20:48;;;;;;;;;;;;;;;;;;4315725;33;20265;-81
2022/02/19 08:23:13;;;;;;;;;;;;;;;;;;4316555;33;19951;-82
2022/02/19 08:25:39;;;;;;;;;;;;;;;;;;4314587;33;19954;-81
2022/02/19 08:28:05;;;;;;;;;;;;;;;;;;4315876;33;19943;-82
2022/02/19 08:30:30;;;;;;;;;;;;;;;;;;4316106;33;20317;-82
2022/02/19 08:32:55;;;;;;;;;;;;;;;;;;4316326;33;20359;-82
2022/02/19 08:35:20;;;;;;;;;;;;;;;;;;4317279;33;19974;-81
2022/02/19 08:37:46;;;;;;;;;;;;;;;;;;4316754;33;19935;-79
2022/02/19 08:40:32;;;;;;;;;;;;;;;;;;4316134;33;19939;-83
2022/02/19 08:42:58;;;;;;;;;;;;;;;;;;4314447;33;19950;-81
2022/02/19 08:45:26;;;;;;;;;;;;;;;;;;4315632;33;20076;-82
2022/02/19 08:47:58;;;;;;;;;;;;;;;;;;4315866;33;20003;-81
2022/02/19 08:50:26;;;;;;;;;;;;;;;;;;4315969;33;19931;-81
2022/02/19 08:52:51;;;;;;;;;;;;;;;;;;4316394;33;20322;-81
2022/02/19 08:55:16;;;;;;;;;;;;;;;;;;4315953;33;20344;-81
2022/02/19 08:57:45;;;;;;;;;;;;;;;;;;4316251;33;19975;-81
2022/02/19 09:00:15;;;;;;;;;;;;;;;;;;4317183;33;19999;-81
2022/02/19 09:02:46;;;;;;;;;;;;;;;;;;4315689;33;19935;-80
2022/02/19 09:05:12;;;;;;;;;;;;;;;;;;4317313;33;19982;-81
2022/02/19 09:07:37;;;;;;;;;;;;;;;;;;4315825;33;20246;-80
2022/02/19 09:10:08;;;;;;;;;;;;;;;;;;4315578;33;19939;-82
2022/02/19 09:12:33;;;;;;;;;;;;;;;;;;4315637;33;19946;-83
2022/02/19 09:14:58;;;;;;;;;;;;;;;;;;4315776;33;19939;-82
2022/02/19 09:18:12;;;;;;;;;;;;;;;;;;4315876;33;19953;-80
2022/02/19 09:20:22;;;;;;;;;;;;;;;;;;;;;
2022/02/19 09:22:47;;;;;;;;;;;;;;;;;;4317347;33;19943;-80
2022/02/19 09:27:57;;;;;;;;;;;;;;;;;;4316810;33;20332;-79
2022/02/19 09:30:22;;;;;;;;;;;;;;;;;;4315456;33;19979;-80
2022/02/19 09:32:59;;;;;;;;;;;;;;;;;;4316086;33;19958;-80
2022/02/19 09:35:35;;;;;;;;;;;;;;;;;;;;;
2022/02/19 09:38:10;;;;;;;;;;;;;;;;;;4317624;33;19947;-81
2022/02/19 09:40:47;;;;;;;;;;;;;;;;;;4315237;33;19935;-80
2022/02/19 09:43:15;;;;;;;;;;;;;;;;;;4313347;33;19963;-79
2022/02/19 09:45:40;;;;;;;;;;;;;;;;;;4312555;33;19945;-81
2022/02/19 09:48:05;;;;;;;;;;;;;;;;;;4302451;33;19986;-81
2022/02/19 09:50:31;;;;;;;;;;;;;;;;;;4312788;33;19936;-82
2022/02/19 09:52:56;;;;;;;;;;;;;;;;;;4314993;33;20279;-79
2022/02/19 09:55:22;;;;;;;;;;;;;;;;;;4315279;33;19939;-81
2022/02/19 09:57:47;;;;;;;;;;;;;;;;;;4315350;33;19932;-80
2022/02/19 10:00:12;;;;;;;;;;;;;;;;;;4315355;33;19985;-81
2022/02/19 10:05:24;;;;;;;;;;;;;;;;;;4317098;33;19959;-80
2022/02/19 10:08:07;;;;;;;;;;;;;;;;;;4315956;33;20357;-80
2022/02/19 10:10:45;;;;;;;;;;;;;;;;;;4312127;33;19981;-81
2022/02/19 10:13:12;;;;;;;;;;;;;;;;;;4316318;33;19958;-81
2022/02/19 10:15:47;;;;;;;;;;;;;;;;;;4315607;33;19983;-80
2022/02/19 10:18:16;;;;;;;;;;;;;;;;;;4316190;33;20265;-80
2022/02/19 10:20:56;;;;;;;;;;;;;;;;;;;;;
2022/02/19 10:23:21;;;;;;;;;;;;;;;;;;4310569;33;20383;-81
2022/02/19 10:25:47;;;;;;;;;;;;;;;;;;4313005;33;19940;-82
2022/02/19 10:28:12;;;;;;;;;;;;;;;;;;4301776;33;19983;-81
2022/02/19 10:30:40;;;;;;;;;;;;;;;;;;4312397;33;19931;-81
2022/02/19 10:33:16;;;;;;;;;;;;;;;;;;4312489;33;19941;-80
2022/02/19 10:35:42;;;;;;;;;;;;;;;;;;4314156;33;19986;-79
2022/02/19 10:38:07;;;;;;;;;;;;;;;;;;4314711;33;19931;-80
2022/02/19 10:40:43;;;;;;;;;;;;;;;;;;4316837;33;19979;-81
2022/02/19 10:43:08;;;;;;;;;;;;;;;;;;4316708;33;19939;-81
2022/02/19 10:45:44;;;;;;;;;;;;;;;;;;4317220;33;19953;-81
2022/02/19 10:48:18;;;;;;;;;;;;;;;;;;4317248;33;19962;-79
2022/02/19 10:51:28;;;;;;;;;;;;;;;;;;4317940;33;19939;-81
2022/02/19 10:53:43;;;;;;;;;;;;;;;;;;4310958;33;19943;-82
2022/02/19 10:56:15;;;;;;;;;;;;;;;;;;4317228;33;19946;-80
2022/02/19 10:58:49;;;;;;;;;;;;;;;;;;4317428;33;19939;-81
2022/02/19 11:01:15;;;;;;;;;;;;;;;;;;4316301;33;19966;-79
2022/02/19 11:03:59;;;;;;;;;;;;;;;;;;4316739;33;19935;-81
2022/02/19 11:09:19;;;;;;;;;;;;;;;;;;4287065;33;19940;-81
2022/02/19 11:11:44;;;;;;;;;;;;;;;;;;4275321;33;19946;-80
2022/02/19 11:14:20;;;;;;;;;;;;;;;;;;4283427;33;19943;-81
2022/02/19 11:16:45;;;;;;;;;;;;;;;;;;4315292;33;19970;-81
2022/02/19 11:19:10;;;;;;;;;;;;;;;;;;4304698;33;20377;-81
2022/02/19 11:24:36;;;;;;;;;;;;;;;;;;4315920;33;19955;-81
2022/02/19 11:27:03;;;;;;;;;;;;;;;;;;4303853;33;19963;-81
2022/02/19 11:32:38;;;;;;;;;;;;;;;;;;4244959;33;20022;-82
2022/02/19 11:40:44;;;;;;;;;;;;;;;;;;4317770;33;20363;-82
2022/02/19 11:43:09;;;;;;;;;;;;;;;;;;4317552;33;20281;-80
2022/02/19 11:45:35;;;;;;;;;;;;;;;;;;4316525;33;19940;-80
2022/02/19 11:48:00;;;;;;;;;;;;;;;;;;4316731;33;19949;-82
2022/02/19 11:50:28;;;;;;;;;;;;;;;;;;4314120;33;19940;-81
2022/02/19 11:52:53;;;;;;;;;;;;;;;;;;4314172;33;19967;-81
2022/02/19 11:55:21;;;;;;;;;;;;;;;;;;4304083;33;19940;-81
2022/02/19 11:57:50;;;;;;;;;;;;;;;;;;4314742;33;20297;-80
2022/02/19 12:00:15;;;;;;;;;;;;;;;;;;4314028;33;20302;-81
2022/02/19 12:02:42;;;;;;;;;;;;;;;;;;4314093;33;19987;-82
2022/02/19 12:05:07;;;;;;;;;;;;;;;;;;4302851;33;19983;-82
2022/02/19 12:07:32;;;;;;;;;;;;;;;;;;4314305;33;20019;-80
2022/02/19 12:10:09;;;;;;;;;;;;;;;;;;4313827;33;19980;-81
2022/02/19 12:12:41;;;;;;;;;;;;;;;;;;4314255;33;19932;-80
2022/02/19 12:15:09;;;;;;;;;;;;;;;;;;4314002;33;19951;-81
2022/02/19 12:17:40;;;;;;;;;;;;;;;;;;4312571;33;19979;-80
2022/02/19 12:20:06;;;;;;;;;;;;;;;;;;4313664;33;19943;-80
2022/02/19 12:22:41;;;;;;;;;;;;;;;;;;4313882;33;19972;-80
2022/02/19 12:25:09;;;;;;;;;;;;;;;;;;4314260;33;19932;-82
2022/02/19 12:27:34;;;;;;;;;;;;;;;;;;4313230;33;19940;-80
2022/02/19 12:29:59;;;;;;;;;;;;;;;;;;4314076;33;20344;-82
2022/02/19 12:32:24;;;;;;;;;;;;;;;;;;4313957;33;20234;-81
2022/02/19 12:34:52;;;;;;;;;;;;;;;;;;4313784;33;19939;-82
2022/02/19 12:37:20;;;;;;;;;;;;;;;;;;4313531;33;20322;-81
2022/02/19 12:40:04;;;;;;;;;;;;;;;;;;4313652;33;19958;-80
2022/02/19 12:45:18;;;;;;;;;;;;;;;;;;4299155;33;20019;-80
2022/02/19 12:47:54;;;;;;;;;;;;;;;;;;4313443;33;19955;-80
2022/02/19 12:50:23;;;;;;;;;;;;;;;;;;4313081;33;20306;-81
2022/02/19 12:52:55;;;;;;;;;;;;;;;;;;4302152;33;19954;-80
2022/02/19 12:55:29;;;;;;;;;;;;;;;;;;4312714;33;19946;-80
2022/02/19 12:57:58;;;;;;;;;;;;;;;;;;4313740;33;19966;-81
2022/02/19 13:00:23;;;;;;;;;;;;;;;;;;4315342;33;19935;-80
2022/02/19 13:03:01;;;;;;;;;;;;;;;;;;;;;
2022/02/19 13:05:40;;;;;;;;;;;;;;;;;;;;;
2022/02/19 13:08:17;;;;;;;;;;;;;;;;;;4285517;33;19939;-79
2022/02/19 13:11:01;;;;;;;;;;;;;;;;;;;;;
2022/02/19 13:16:12;;;;;;;;;;;;;;;;;;4286189;33;20288;-80
2022/02/19 13:18:45;;;;;;;;;;;;;;;;;;4285490;33;20023;-78
2022/02/19 13:21:22;;;;;;;;;;;;;;;;;;4285795;33;19959;-79
2022/02/19 13:23:58;;;;;;;;;;;;;;;;;;4285532;33;19974;-79
2022/02/19 13:26:29;;;;;;;;;;;;;;;;;;4284630;33;19970;-79
2022/02/19 13:29:10;;;;;;;;;;;;;;;;;;4283669;33;19959;-80
2022/02/19 13:31:44;;;;;;;;;;;;;;;;;;4299485;33;19942;-81
2022/02/19 13:34:33;;;;;;;;;;;;;;;;;;4315504;33;19932;-80
2022/02/19 13:37:23;;;;;;;;;;;;;;;;;;;;;
2022/02/19 13:42:43;;;;;;;;;;;;;;;;;;4304351;33;19943;-80
2022/02/19 13:47:54;;;;;;;;;;;;;;;;;;4310650;33;19947;-78
2022/02/19 13:50:40;;;;;;;;;;;;;;;;;;;;;
2022/02/19 13:58:40;;;;;;;;;;;;;;;;;;4313608;33;19954;-80
2022/02/19 14:03:55;;;;;;;;;;;;;;;;;;4316395;33;20305;-79
2022/02/19 14:06:29;;;;;;;;;;;;;;;;;;4315659;33;19935;-81
2022/02/19 14:08:55;;;;;;;;;;;;;;;;;;4314708;33;19993;-80
2022/02/19 14:11:20;;;;;;;;;;;;;;;;;;4316737;33;19944;-79
2022/02/19 14:13:46;;;;;;;;;;;;;;;;;;4315099;33;20313;-79
2022/02/19 14:16:27;;;;;;;;;;;;;;;;;;4314833;33;19969;-79
2022/02/19 14:19:04;;;;;;;;;;;;;;;;;;4317923;33;19970;-80
2022/02/19 14:21:46;;;;;;;;;;;;;;;;;;4317840;33;19931;-80
2022/02/19 14:24:21;;;;;;;;;;;;;;;;;;4317639;33;19931;-80
2022/02/19 14:26:46;;;;;;;;;;;;;;;;;;4318055;33;20344;-80
2022/02/19 14:32:05;;;;;;;;;;;;;;;;;;;;;
2022/02/19 14:37:15;;;;;;;;;;;;;;;;;;4319196;33;20332;-80
2022/02/19 14:39:45;;;;;;;;;;;;;;;;;;4309238;33;19963;-80
2022/02/19 14:42:18;;;;;;;;;;;;;;;;;;4317470;33;19966;-79
2022/02/19 14:44:50;;;;;;;;;;;;;;;;;;4317577;33;19932;-80
2022/02/19 14:47:25;;;;;;;;;;;;;;;;;;4316987;33;19955;-79
2022/02/19 14:52:58;;;;;;;;;;;;;;;;;;4273710;33;19940;-79
2022/02/19 14:55:35;;;;;;;;;;;;;;;;;;;;;
2022/02/19 14:58:22;;;;;;;;;;;;;;;;;;4273509;33;19959;-79
2022/02/19 15:01:05;;;;;;;;;;;;;;;;;;;;;
2022/02/19 15:06:23;;;;;;;;;;;;;;;;;;4295290;33;19948;-80
2022/02/19 15:09:10;;;;;;;;;;;;;;;;;;4317424;33;19940;-79
2022/02/19 15:11:57;;;;;;;;;;;;;;;;;;4318435;33;20285;-80
2022/02/19 15:14:21;;;;;;;;;;;;;;;;;;4317611;33;19977;-80
2022/02/19 15:16:49;;;;;;;;;;;;;;;;;;4317831;33;19936;-80
2022/02/19 15:19:18;;;;;;;;;;;;;;;;;;4318427;33;19969;-79
2022/02/19 15:22:02;;;;;;;;;;;;;;;;;;;;;
2022/02/19 15:24:41;;;;;;;;;;;;;;;;;;;;;
2022/02/19 15:27:09;;;;;;;;;;;;;;;;;;4316123;33;19962;-81
2022/02/19 15:29:44;;;;;;;;;;;;;;;;;;;;;
2022/02/19 15:32:23;;;;;;;;;;;;;;;;;;;;;
2022/02/19 15:35:02;;;;;;;;;;;;;;;;;;;;;
2022/02/19 15:37:45;;;;;;;;;;;;;;;;;;;;;
2022/02/19 15:40:22;;;;;;;;;;;;;;;;;;4285794;33;19960;-81
2022/02/19 15:45:51;;;;;;;;;;;;;;;;;;;;;
2022/02/19 15:48:20;;;;;;;;;;;;;;;;;;4287269;33;19962;-79
2022/02/19 15:50:59;;;;;;;;;;;;;;;;;;4287725;33;19936;-81
2022/02/19 15:53:27;;;;;;;;;;;;;;;;;;4303369;33;19971;-80
2022/02/19 15:55:55;;;;;;;;;;;;;;;;;;4303064;33;19967;-80
2022/02/19 15:58:31;;;;;;;;;;;;;;;;;;4315629;33;19944;-79
2022/02/19 16:00:59;;;;;;;;;;;;;;;;;;4314354;33;19931;-79
2022/02/19 16:03:33;;;;;;;;;;;;;;;;;;4303727;33;19954;-79
2022/02/19 16:06:03;;;;;;;;;;;;;;;;;;4314137;33;19983;-77
2022/02/19 16:08:30;;;;;;;;;;;;;;;;;;4303402;33;19940;-79
2022/02/19 16:10:55;;;;;;;;;;;;;;;;;;4302866;33;19939;-78
2022/02/19 16:13:21;;;;;;;;;;;;;;;;;;4313789;33;19948;-79
2022/02/19 16:15:46;;;;;;;;;;;;;;;;;;4303809;33;19940;-73
2022/02/19 16:18:11;;;;;;;;;;;;;;;;;;4305057;33;20042;-79
2022/02/19 16:20:39;;;;;;;;;;;;;;;;;;4302359;33;19959;-76
2022/02/19 16:23:04;;;;;;;;;;;;;;;;;;4312128;33;19979;-79
2022/02/19 16:25:29;;;;;;;;;;;;;;;;;;4312660;33;19944;-78
2022/02/19 16:27:57;;;;;;;;;;;;;;;;;;4314345;33;20007;-79
2022/02/19 16:30:28;;;;;;;;;;;;;;;;;;4313709;33;20006;-78
2022/02/19 16:32:53;;;;;;;;;;;;;;;;;;4314266;33;19971;-78
2022/02/19 16:35:18;;;;;;;;;;;;;;;;;;4314212;33;19971;-79
2022/02/19 16:37:49;;;;;;;;;;;;;;;;;;4313765;33;19944;-77
2022/02/19 16:40:16;;;;;;;;;;;;;;;;;;4313014;33;19932;-77
2022/02/19 16:42:41;;;;;;;;;;;;;;;;;;4315264;33;19944;-79
2022/02/19 16:45:07;;;;;;;;;;;;;;;;;;4315758;33;19947;-78
2022/02/19 16:47:34;;;;;;;;;;;;;;;;;;4315393;33;19981;-77
2022/02/19 16:50:01;;;;;;;;;;;;;;;;;;4315589;33;20322;-76
2022/02/19 16:52:27;;;;;;;;;;;;;;;;;;4315584;33;19950;-75
2022/02/19 16:54:53;;;;;;;;;;;;;;;;;;4315659;33;20014;-78
2022/02/19 16:57:21;;;;;;;;;;;;;;;;;;4315584;33;19958;-78
2022/02/19 16:59:46;;;;;;;;;;;;;;;;;;4315954;33;19955;-75
2022/02/19 17:02:18;;;;;;;;;;;;;;;;;;4316424;33;20340;-78
2022/02/19 17:04:49;;;;;;;;;;;;;;;;;;4314801;33;19931;-78
2022/02/19 17:07:26;;;;;;;;;;;;;;;;;;4313032;33;20050;-79
2022/02/19 17:09:51;;;;;;;;;;;;;;;;;;4313400;33;20000;-77
2022/02/19 17:12:27;;;;;;;;;;;;;;;;;;4315591;33;19939;-76
2022/02/19 17:14:52;;;;;;;;;;;;;;;;;;4315556;33;19978;-79
2022/02/19 17:17:18;;;;;;;;;;;;;;;;;;4316492;33;19954;-77
2022/02/19 17:19:43;;;;;;;;;;;;;;;;;;4316302;33;19979;-76
2022/02/19 17:22:25;;;;;;;;;;;;;;;;;;4312659;33;19936;-77
2022/02/19 17:24:50;;;;;;;;;;;;;;;;;;4313322;33;19959;-77
2022/02/19 17:27:15;;;;;;;;;;;;;;;;;;4302403;33;20318;-75
2022/02/19 17:29:43;;;;;;;;;;;;;;;;;;4312773;33;19952;-77
2022/02/19 17:32:10;;;;;;;;;;;;;;;;;;4313209;33;19948;-77
2022/02/19 17:34:35;;;;;;;;;;;;;;;;;;4301905;33;19940;-79
2022/02/19 17:37:01;;;;;;;;;;;;;;;;;;4312769;33;19954;-79
2022/02/19 17:39:26;;;;;;;;;;;;;;;;;;4315279;33;19951;-79
2022/02/19 17:42:03;;;;;;;;;;;;;;;;;;4315186;33;19949;-80
2022/02/19 17:44:28;;;;;;;;;;;;;;;;;;4315336;33;19944;-79
2022/02/19 17:46:53;;;;;;;;;;;;;;;;;;4314926;33;19940;-79
2022/02/19 17:49:19;;;;;;;;;;;;;;;;;;4316924;33;19963;-79
2022/02/19 17:51:51;;;;;;;;;;;;;;;;;;4314571;33;19958;-80
2022/02/19 17:54:19;;;;;;;;;;;;;;;;;;4303460;33;19947;-78
2022/02/19 17:56:44;;;;;;;;;;;;;;;;;;4314730;33;20351;-80
2022/02/19 17:59:20;;;;;;;;;;;;;;;;;;4312561;33;19940;-78
2022/02/19 18:01:54;;;;;;;;;;;;;;;;;;4312710;33;19963;-80
2022/02/19 18:04:22;;;;;;;;;;;;;;;;;;4312597;33;19966;-79
2022/02/19 18:06:47;;;;;;;;;;;;;;;;;;4312361;33;19963;-80
2022/02/19 18:09:17;;;;;;;;;;;;;;;;;;4312209;33;19999;-78
2022/02/19 18:11:45;;;;;;;;;;;;;;;;;;4312329;33;19967;-79
2022/02/19 18:14:14;;;;;;;;;;;;;;;;;;4312226;33;20342;-77
2022/02/19 18:16:44;;;;;;;;;;;;;;;;;;4312616;33;19932;-77